sensor_id;sensor_type;location;lat;lon;timestamp;P1;durP1;ratioP1;P2;durP2;ratioP2
23228;SDS011;11783;50.350;6.576;2022-11-23T00:01:19;8.60;;;1.80;;
23228;SDS011;11783;50.350;6.576;2022-11-23T00:03:46;9.50;;;2.30;;
23228;SDS011;11783;50.350;6.576;2022-11-23T00:06:13;8.77;;;2.10;;
23228;SDS011;11783;50.350;6.576;2022-11-23T00:08:39;10.43;;;2.28;;
23228;SDS011;11783;50.350;6.576;2022-11-23T00:11:04;9.95;;;2.30;;
23228;SDS011;11783;50.350;6.576;2022-11-23T00:13:30;7.00;;;1.90;;
23228;SDS011;11783;50.350;6.576;2022-11-23T00:15:55;9.00;;;2.20;;
23228;SDS011;11783;50.350;6.576;2022-11-23T00:18:20;11.75;;;2.42;;
23228;SDS011;11783;50.350;6.576;2022-11-23T00:20:46;9.82;;;1.90;;
23228;SDS011;11783;50.350;6.576;2022-11-23T00:23:11;9.57;;;2.22;;
23228;SDS011;11783;50.350;6.576;2022-11-23T00:25:37;6.93;;;1.90;;
23228;SDS011;11783;50.350;6.576;2022-11-23T00:28:03;12.10;;;2.25;;
23228;SDS011;11783;50.350;6.576;2022-11-23T00:30:28;8.35;;;2.47;;
23228;SDS011;11783;50.350;6.576;2022-11-23T00:32:54;11.25;;;2.22;;
23228;SDS011;11783;50.350;6.576;2022-11-23T00:35:20;8.27;;;2.50;;
23228;SDS011;11783;50.350;6.576;2022-11-23T00:37:46;8.73;;;2.30;;
23228;SDS011;11783;50.350;6.576;2022-11-23T00:40:11;12.02;;;2.50;;
23228;SDS011;11783;50.350;6.576;2022-11-23T00:42:36;13.77;;;2.38;;
23228;SDS011;11783;50.350;6.576;2022-11-23T00:45:02;11.95;;;2.55;;
23228;SDS011;11783;50.350;6.576;2022-11-23T00:47:27;12.20;;;2.40;;
23228;SDS011;11783;50.350;6.576;2022-11-23T00:49:53;11.13;;;2.90;;
23228;SDS011;11783;50.350;6.576;2022-11-23T00:52:18;8.73;;;2.20;;
23228;SDS011;11783;50.350;6.576;2022-11-23T00:54:43;14.35;;;3.22;;
23228;SDS011;11783;50.350;6.576;2022-11-23T00:57:09;11.82;;;2.80;;
23228;SDS011;11783;50.350;6.576;2022-11-23T00:59:34;12.20;;;2.30;;
23228;SDS011;11783;50.350;6.576;2022-11-23T01:02:00;14.52;;;2.60;;
23228;SDS011;11783;50.350;6.576;2022-11-23T01:04:26;14.02;;;2.80;;
23228;SDS011;11783;50.350;6.576;2022-11-23T01:06:54;12.55;;;2.58;;
23228;SDS011;11783;50.350;6.576;2022-11-23T01:09:21;12.38;;;2.42;;
23228;SDS011;11783;50.350;6.576;2022-11-23T01:11:50;13.65;;;2.33;;
23228;SDS011;11783;50.350;6.576;2022-11-23T01:14:19;12.93;;;2.35;;
23228;SDS011;11783;50.350;6.576;2022-11-23T01:16:45;18.63;;;2.78;;
23228;SDS011;11783;50.350;6.576;2022-11-23T01:19:13;10.80;;;2.53;;
23228;SDS011;11783;50.350;6.576;2022-11-23T01:21:40;14.45;;;2.70;;
23228;SDS011;11783;50.350;6.576;2022-11-23T01:24:06;16.65;;;2.60;;
23228;SDS011;11783;50.350;6.576;2022-11-23T01:26:39;20.20;;;3.88;;
23228;SDS011;11783;50.350;6.576;2022-11-23T01:29:05;11.38;;;2.97;;
23228;SDS011;11783;50.350;6.576;2022-11-23T01:31:31;20.50;;;2.95;;
23228;SDS011;11783;50.350;6.576;2022-11-23T01:33:57;14.23;;;2.63;;
23228;SDS011;11783;50.350;6.576;2022-11-23T01:36:25;12.65;;;2.63;;
23228;SDS011;11783;50.350;6.576;2022-11-23T01:38:52;8.88;;;2.45;;
23228;SDS011;11783;50.350;6.576;2022-11-23T01:41:19;10.38;;;2.85;;
23228;SDS011;11783;50.350;6.576;2022-11-23T01:43:46;16.83;;;2.53;;
23228;SDS011;11783;50.350;6.576;2022-11-23T01:46:12;12.65;;;2.80;;
23228;SDS011;11783;50.350;6.576;2022-11-23T01:48:39;11.07;;;2.30;;
23228;SDS011;11783;50.350;6.576;2022-11-23T01:51:10;11.88;;;1.98;;
23228;SDS011;11783;50.350;6.576;2022-11-23T01:53:39;12.90;;;2.37;;
23228;SDS011;11783;50.350;6.576;2022-11-23T01:56:06;14.18;;;2.30;;
23228;SDS011;11783;50.350;6.576;2022-11-23T01:58:35;11.80;;;2.20;;
23228;SDS011;11783;50.350;6.576;2022-11-23T02:01:04;9.88;;;2.50;;
23228;SDS011;11783;50.350;6.576;2022-11-23T02:03:30;14.77;;;2.17;;
23228;SDS011;11783;50.350;6.576;2022-11-23T02:06:00;9.23;;;2.13;;
23228;SDS011;11783;50.350;6.576;2022-11-23T02:08:27;12.70;;;2.10;;
23228;SDS011;11783;50.350;6.576;2022-11-23T02:10:56;10.32;;;2.65;;
23228;SDS011;11783;50.350;6.576;2022-11-23T02:13:24;8.52;;;2.20;;
23228;SDS011;11783;50.350;6.576;2022-11-23T02:15:51;12.88;;;2.17;;
23228;SDS011;11783;50.350;6.576;2022-11-23T02:18:20;9.52;;;2.72;;
23228;SDS011;11783;50.350;6.576;2022-11-23T02:20:47;14.10;;;2.15;;
23228;SDS011;11783;50.350;6.576;2022-11-23T02:25:50;14.60;;;2.42;;
23228;SDS011;11783;50.350;6.576;2022-11-23T02:28:23;10.48;;;2.28;;
23228;SDS011;11783;50.350;6.576;2022-11-23T02:30:52;10.60;;;2.30;;
23228;SDS011;11783;50.350;6.576;2022-11-23T02:33:19;11.98;;;2.30;;
23228;SDS011;11783;50.350;6.576;2022-11-23T02:35:51;9.18;;;1.90;;
23228;SDS011;11783;50.350;6.576;2022-11-23T02:38:17;12.07;;;2.03;;
23228;SDS011;11783;50.350;6.576;2022-11-23T02:40:44;11.43;;;2.20;;
23228;SDS011;11783;50.350;6.576;2022-11-23T02:43:10;14.68;;;2.53;;
23228;SDS011;11783;50.350;6.576;2022-11-23T02:45:37;13.20;;;2.55;;
23228;SDS011;11783;50.350;6.576;2022-11-23T02:48:07;12.07;;;2.35;;
23228;SDS011;11783;50.350;6.576;2022-11-23T02:50:32;14.98;;;2.92;;
23228;SDS011;11783;50.350;6.576;2022-11-23T02:52:58;10.93;;;1.88;;
23228;SDS011;11783;50.350;6.576;2022-11-23T02:55:23;9.82;;;1.55;;
23228;SDS011;11783;50.350;6.576;2022-11-23T02:57:49;13.05;;;2.08;;
23228;SDS011;11783;50.350;6.576;2022-11-23T03:00:14;10.93;;;1.92;;
23228;SDS011;11783;50.350;6.576;2022-11-23T03:02:40;8.77;;;2.08;;
23228;SDS011;11783;50.350;6.576;2022-11-23T03:05:05;15.82;;;2.60;;
23228;SDS011;11783;50.350;6.576;2022-11-23T03:07:31;9.73;;;1.58;;
23228;SDS011;11783;50.350;6.576;2022-11-23T03:09:56;10.10;;;1.75;;
23228;SDS011;11783;50.350;6.576;2022-11-23T03:12:22;6.88;;;1.48;;
23228;SDS011;11783;50.350;6.576;2022-11-23T03:14:47;9.15;;;2.00;;
23228;SDS011;11783;50.350;6.576;2022-11-23T03:17:12;7.38;;;1.73;;
23228;SDS011;11783;50.350;6.576;2022-11-23T03:19:38;10.02;;;1.67;;
23228;SDS011;11783;50.350;6.576;2022-11-23T03:22:03;8.77;;;1.60;;
23228;SDS011;11783;50.350;6.576;2022-11-23T03:24:28;10.95;;;1.65;;
23228;SDS011;11783;50.350;6.576;2022-11-23T03:26:54;7.85;;;1.60;;
23228;SDS011;11783;50.350;6.576;2022-11-23T03:29:19;6.28;;;1.50;;
23228;SDS011;11783;50.350;6.576;2022-11-23T03:31:46;8.48;;;1.65;;
23228;SDS011;11783;50.350;6.576;2022-11-23T03:34:11;9.18;;;1.65;;
23228;SDS011;11783;50.350;6.576;2022-11-23T03:36:36;10.85;;;1.98;;
23228;SDS011;11783;50.350;6.576;2022-11-23T03:39:02;11.63;;;2.10;;
23228;SDS011;11783;50.350;6.576;2022-11-23T03:41:27;8.50;;;1.65;;
23228;SDS011;11783;50.350;6.576;2022-11-23T03:43:52;10.35;;;1.75;;
23228;SDS011;11783;50.350;6.576;2022-11-23T03:46:18;7.90;;;1.77;;
23228;SDS011;11783;50.350;6.576;2022-11-23T03:48:43;8.05;;;1.73;;
23228;SDS011;11783;50.350;6.576;2022-11-23T03:51:08;11.10;;;2.00;;
23228;SDS011;11783;50.350;6.576;2022-11-23T03:53:34;12.30;;;1.98;;
23228;SDS011;11783;50.350;6.576;2022-11-23T03:55:59;6.93;;;1.65;;
23228;SDS011;11783;50.350;6.576;2022-11-23T03:58:24;9.82;;;1.98;;
23228;SDS011;11783;50.350;6.576;2022-11-23T04:00:50;10.23;;;2.15;;
23228;SDS011;11783;50.350;6.576;2022-11-23T04:03:15;11.18;;;1.75;;
23228;SDS011;11783;50.350;6.576;2022-11-23T04:05:40;10.15;;;1.58;;
23228;SDS011;11783;50.350;6.576;2022-11-23T04:08:06;7.35;;;1.85;;
23228;SDS011;11783;50.350;6.576;2022-11-23T04:10:31;7.78;;;1.90;;
23228;SDS011;11783;50.350;6.576;2022-11-23T04:12:56;10.20;;;2.05;;
23228;SDS011;11783;50.350;6.576;2022-11-23T04:15:21;6.85;;;1.67;;
23228;SDS011;11783;50.350;6.576;2022-11-23T04:17:47;12.68;;;1.77;;
23228;SDS011;11783;50.350;6.576;2022-11-23T04:20:12;10.68;;;2.35;;
23228;SDS011;11783;50.350;6.576;2022-11-23T04:22:38;6.78;;;2.20;;
23228;SDS011;11783;50.350;6.576;2022-11-23T04:25:03;13.57;;;2.30;;
23228;SDS011;11783;50.350;6.576;2022-11-23T04:27:29;14.85;;;2.55;;
23228;SDS011;11783;50.350;6.576;2022-11-23T04:29:54;13.27;;;2.78;;
23228;SDS011;11783;50.350;6.576;2022-11-23T04:32:20;15.20;;;2.30;;
23228;SDS011;11783;50.350;6.576;2022-11-23T04:34:45;14.30;;;2.83;;
23228;SDS011;11783;50.350;6.576;2022-11-23T04:37:10;15.90;;;2.95;;
23228;SDS011;11783;50.350;6.576;2022-11-23T04:39:35;15.77;;;3.13;;
23228;SDS011;11783;50.350;6.576;2022-11-23T04:42:01;18.83;;;2.95;;
23228;SDS011;11783;50.350;6.576;2022-11-23T04:44:26;15.20;;;2.80;;
23228;SDS011;11783;50.350;6.576;2022-11-23T04:46:51;16.70;;;2.85;;
23228;SDS011;11783;50.350;6.576;2022-11-23T04:49:17;18.08;;;2.75;;
23228;SDS011;11783;50.350;6.576;2022-11-23T04:51:42;14.25;;;2.72;;
23228;SDS011;11783;50.350;6.576;2022-11-23T04:54:08;18.85;;;3.08;;
23228;SDS011;11783;50.350;6.576;2022-11-23T04:56:33;12.32;;;2.83;;
23228;SDS011;11783;50.350;6.576;2022-11-23T04:58:58;10.85;;;2.25;;
23228;SDS011;11783;50.350;6.576;2022-11-23T05:01:24;10.65;;;2.58;;
23228;SDS011;11783;50.350;6.576;2022-11-23T05:03:49;18.20;;;3.67;;
23228;SDS011;11783;50.350;6.576;2022-11-23T05:06:14;15.82;;;2.95;;
23228;SDS011;11783;50.350;6.576;2022-11-23T05:08:41;19.45;;;2.78;;
23228;SDS011;11783;50.350;6.576;2022-11-23T05:11:06;14.38;;;3.03;;
23228;SDS011;11783;50.350;6.576;2022-11-23T05:13:32;15.80;;;3.00;;
23228;SDS011;11783;50.350;6.576;2022-11-23T05:15:57;15.25;;;3.25;;
23228;SDS011;11783;50.350;6.576;2022-11-23T05:18:22;13.98;;;3.00;;
23228;SDS011;11783;50.350;6.576;2022-11-23T05:20:48;14.38;;;3.00;;
23228;SDS011;11783;50.350;6.576;2022-11-23T05:23:13;15.60;;;2.90;;
23228;SDS011;11783;50.350;6.576;2022-11-23T05:25:38;12.55;;;2.40;;
23228;SDS011;11783;50.350;6.576;2022-11-23T05:28:04;15.77;;;3.33;;
23228;SDS011;11783;50.350;6.576;2022-11-23T05:30:29;16.73;;;3.08;;
23228;SDS011;11783;50.350;6.576;2022-11-23T05:33:01;14.93;;;3.03;;
23228;SDS011;11783;50.350;6.576;2022-11-23T05:35:27;19.83;;;3.17;;
23228;SDS011;11783;50.350;6.576;2022-11-23T05:37:53;17.20;;;3.55;;
23228;SDS011;11783;50.350;6.576;2022-11-23T05:40:19;11.02;;;2.90;;
23228;SDS011;11783;50.350;6.576;2022-11-23T05:42:44;16.45;;;3.47;;
23228;SDS011;11783;50.350;6.576;2022-11-23T05:45:09;16.88;;;3.17;;
23228;SDS011;11783;50.350;6.576;2022-11-23T05:47:34;20.60;;;3.40;;
23228;SDS011;11783;50.350;6.576;2022-11-23T05:50:00;14.77;;;3.10;;
23228;SDS011;11783;50.350;6.576;2022-11-23T05:52:26;13.68;;;2.85;;
23228;SDS011;11783;50.350;6.576;2022-11-23T05:54:51;16.77;;;3.13;;
23228;SDS011;11783;50.350;6.576;2022-11-23T05:57:16;14.55;;;3.45;;
23228;SDS011;11783;50.350;6.576;2022-11-23T05:59:42;12.90;;;2.85;;
23228;SDS011;11783;50.350;6.576;2022-11-23T06:02:08;13.73;;;2.95;;
23228;SDS011;11783;50.350;6.576;2022-11-23T06:04:33;12.82;;;2.95;;
23228;SDS011;11783;50.350;6.576;2022-11-23T06:06:58;12.40;;;2.80;;
23228;SDS011;11783;50.350;6.576;2022-11-23T06:09:25;19.25;;;3.67;;
23228;SDS011;11783;50.350;6.576;2022-11-23T06:11:51;16.98;;;3.42;;
23228;SDS011;11783;50.350;6.576;2022-11-23T06:14:16;21.63;;;4.40;;
23228;SDS011;11783;50.350;6.576;2022-11-23T06:16:42;19.02;;;3.90;;
23228;SDS011;11783;50.350;6.576;2022-11-23T06:19:07;18.25;;;5.07;;
23228;SDS011;11783;50.350;6.576;2022-11-23T06:21:32;21.45;;;4.25;;
23228;SDS011;11783;50.350;6.576;2022-11-23T06:23:58;15.38;;;4.00;;
23228;SDS011;11783;50.350;6.576;2022-11-23T06:26:23;20.98;;;4.18;;
23228;SDS011;11783;50.350;6.576;2022-11-23T06:28:49;20.00;;;4.22;;
23228;SDS011;11783;50.350;6.576;2022-11-23T06:31:14;13.05;;;3.40;;
23228;SDS011;11783;50.350;6.576;2022-11-23T06:33:40;15.93;;;3.67;;
23228;SDS011;11783;50.350;6.576;2022-11-23T06:36:05;12.85;;;3.17;;
23228;SDS011;11783;50.350;6.576;2022-11-23T06:38:31;14.60;;;3.42;;
23228;SDS011;11783;50.350;6.576;2022-11-23T06:40:57;17.60;;;4.05;;
23228;SDS011;11783;50.350;6.576;2022-11-23T06:43:23;12.02;;;3.03;;
23228;SDS011;11783;50.350;6.576;2022-11-23T06:45:49;14.27;;;3.13;;
23228;SDS011;11783;50.350;6.576;2022-11-23T06:48:14;17.23;;;3.70;;
23228;SDS011;11783;50.350;6.576;2022-11-23T06:50:39;17.88;;;4.00;;
23228;SDS011;11783;50.350;6.576;2022-11-23T06:53:05;15.90;;;3.50;;
23228;SDS011;11783;50.350;6.576;2022-11-23T06:55:30;19.23;;;3.90;;
23228;SDS011;11783;50.350;6.576;2022-11-23T06:57:55;17.75;;;3.40;;
23228;SDS011;11783;50.350;6.576;2022-11-23T07:00:22;11.90;;;3.00;;
23228;SDS011;11783;50.350;6.576;2022-11-23T07:02:51;19.90;;;3.30;;
23228;SDS011;11783;50.350;6.576;2022-11-23T07:05:17;17.42;;;3.70;;
23228;SDS011;11783;50.350;6.576;2022-11-23T07:07:43;21.67;;;3.83;;
23228;SDS011;11783;50.350;6.576;2022-11-23T07:10:08;17.20;;;3.65;;
23228;SDS011;11783;50.350;6.576;2022-11-23T07:12:34;16.17;;;3.60;;
23228;SDS011;11783;50.350;6.576;2022-11-23T07:14:59;22.65;;;3.85;;
23228;SDS011;11783;50.350;6.576;2022-11-23T07:17:24;20.83;;;3.90;;
23228;SDS011;11783;50.350;6.576;2022-11-23T07:19:50;21.45;;;3.97;;
23228;SDS011;11783;50.350;6.576;2022-11-23T07:22:15;22.35;;;4.38;;
23228;SDS011;11783;50.350;6.576;2022-11-23T07:24:41;20.00;;;4.05;;
23228;SDS011;11783;50.350;6.576;2022-11-23T07:27:06;19.33;;;3.95;;
23228;SDS011;11783;50.350;6.576;2022-11-23T07:29:31;22.08;;;4.10;;
23228;SDS011;11783;50.350;6.576;2022-11-23T07:31:56;20.15;;;4.13;;
23228;SDS011;11783;50.350;6.576;2022-11-23T07:34:22;17.50;;;3.70;;
23228;SDS011;11783;50.350;6.576;2022-11-23T07:36:47;13.07;;;3.00;;
23228;SDS011;11783;50.350;6.576;2022-11-23T07:39:12;19.02;;;3.70;;
23228;SDS011;11783;50.350;6.576;2022-11-23T07:41:38;19.75;;;3.60;;
23228;SDS011;11783;50.350;6.576;2022-11-23T07:44:03;16.80;;;3.30;;
23228;SDS011;11783;50.350;6.576;2022-11-23T07:46:29;21.27;;;3.65;;
23228;SDS011;11783;50.350;6.576;2022-11-23T07:48:54;19.15;;;3.22;;
23228;SDS011;11783;50.350;6.576;2022-11-23T07:51:23;12.95;;;3.28;;
23228;SDS011;11783;50.350;6.576;2022-11-23T07:53:49;14.73;;;3.60;;
23228;SDS011;11783;50.350;6.576;2022-11-23T07:56:14;18.75;;;3.83;;
23228;SDS011;11783;50.350;6.576;2022-11-23T07:58:39;17.35;;;3.10;;
23228;SDS011;11783;50.350;6.576;2022-11-23T08:01:04;15.57;;;3.15;;
23228;SDS011;11783;50.350;6.576;2022-11-23T08:03:30;18.45;;;3.47;;
23228;SDS011;11783;50.350;6.576;2022-11-23T08:05:55;17.70;;;3.22;;
23228;SDS011;11783;50.350;6.576;2022-11-23T08:08:20;20.13;;;3.13;;
23228;SDS011;11783;50.350;6.576;2022-11-23T08:10:45;17.65;;;3.47;;
23228;SDS011;11783;50.350;6.576;2022-11-23T08:13:11;13.88;;;3.35;;
23228;SDS011;11783;50.350;6.576;2022-11-23T08:15:36;18.83;;;3.45;;
23228;SDS011;11783;50.350;6.576;2022-11-23T08:18:02;16.20;;;3.25;;
23228;SDS011;11783;50.350;6.576;2022-11-23T08:20:28;15.35;;;3.50;;
23228;SDS011;11783;50.350;6.576;2022-11-23T08:22:54;14.35;;;3.42;;
23228;SDS011;11783;50.350;6.576;2022-11-23T08:25:20;15.48;;;3.38;;
23228;SDS011;11783;50.350;6.576;2022-11-23T08:27:46;12.93;;;2.75;;
23228;SDS011;11783;50.350;6.576;2022-11-23T08:30:12;14.48;;;3.08;;
23228;SDS011;11783;50.350;6.576;2022-11-23T08:32:37;12.68;;;2.92;;
23228;SDS011;11783;50.350;6.576;2022-11-23T08:35:03;16.25;;;3.30;;
23228;SDS011;11783;50.350;6.576;2022-11-23T08:37:28;12.18;;;3.08;;
23228;SDS011;11783;50.350;6.576;2022-11-23T08:39:54;21.20;;;3.53;;
23228;SDS011;11783;50.350;6.576;2022-11-23T08:42:19;18.80;;;3.38;;
23228;SDS011;11783;50.350;6.576;2022-11-23T08:44:44;13.45;;;3.45;;
23228;SDS011;11783;50.350;6.576;2022-11-23T08:47:09;11.32;;;2.92;;
23228;SDS011;11783;50.350;6.576;2022-11-23T08:49:35;22.25;;;3.55;;
23228;SDS011;11783;50.350;6.576;2022-11-23T08:52:00;16.40;;;3.40;;
23228;SDS011;11783;50.350;6.576;2022-11-23T08:54:25;14.32;;;3.20;;
23228;SDS011;11783;50.350;6.576;2022-11-23T08:56:51;10.07;;;3.15;;
23228;SDS011;11783;50.350;6.576;2022-11-23T08:59:16;21.70;;;3.47;;
23228;SDS011;11783;50.350;6.576;2022-11-23T09:01:42;15.98;;;3.53;;
23228;SDS011;11783;50.350;6.576;2022-11-23T09:04:08;14.63;;;3.20;;
23228;SDS011;11783;50.350;6.576;2022-11-23T09:06:34;17.95;;;3.30;;
23228;SDS011;11783;50.350;6.576;2022-11-23T09:08:59;12.65;;;2.90;;
23228;SDS011;11783;50.350;6.576;2022-11-23T09:11:26;13.88;;;3.33;;
23228;SDS011;11783;50.350;6.576;2022-11-23T09:13:51;17.42;;;4.00;;
23228;SDS011;11783;50.350;6.576;2022-11-23T09:16:17;11.02;;;2.80;;
23228;SDS011;11783;50.350;6.576;2022-11-23T09:18:42;15.00;;;3.33;;
23228;SDS011;11783;50.350;6.576;2022-11-23T09:21:08;15.90;;;3.70;;
23228;SDS011;11783;50.350;6.576;2022-11-23T09:23:34;11.07;;;3.30;;
23228;SDS011;11783;50.350;6.576;2022-11-23T09:26:00;11.57;;;2.95;;
23228;SDS011;11783;50.350;6.576;2022-11-23T09:28:27;10.15;;;3.25;;
23228;SDS011;11783;50.350;6.576;2022-11-23T09:30:53;11.55;;;2.83;;
23228;SDS011;11783;50.350;6.576;2022-11-23T09:33:20;15.40;;;3.38;;
23228;SDS011;11783;50.350;6.576;2022-11-23T09:35:47;11.48;;;2.92;;
23228;SDS011;11783;50.350;6.576;2022-11-23T09:38:12;13.60;;;3.97;;
23228;SDS011;11783;50.350;6.576;2022-11-23T09:40:38;11.45;;;2.85;;
23228;SDS011;11783;50.350;6.576;2022-11-23T09:46:24;17.08;;;4.35;;
23228;SDS011;11783;50.350;6.576;2022-11-23T09:51:22;17.42;;;3.13;;
23228;SDS011;11783;50.350;6.576;2022-11-23T09:53:49;15.27;;;3.00;;
23228;SDS011;11783;50.350;6.576;2022-11-23T09:56:30;9.60;;;2.70;;
23228;SDS011;11783;50.350;6.576;2022-11-23T09:58:58;11.52;;;3.60;;
23228;SDS011;11783;50.350;6.576;2022-11-23T10:01:26;15.98;;;4.00;;
23228;SDS011;11783;50.350;6.576;2022-11-23T10:03:52;15.57;;;3.20;;
23228;SDS011;11783;50.350;6.576;2022-11-23T10:06:24;15.07;;;3.42;;
23228;SDS011;11783;50.350;6.576;2022-11-23T10:08:56;18.90;;;3.75;;
23228;SDS011;11783;50.350;6.576;2022-11-23T10:25:16;14.27;;;3.38;;
23228;SDS011;11783;50.350;6.576;2022-11-23T10:27:48;14.63;;;3.40;;
23228;SDS011;11783;50.350;6.576;2022-11-23T10:30:15;10.30;;;3.08;;
23228;SDS011;11783;50.350;6.576;2022-11-23T10:32:56;9.27;;;3.30;;
23228;SDS011;11783;50.350;6.576;2022-11-23T10:38:07;9.60;;;2.50;;
23228;SDS011;11783;50.350;6.576;2022-11-23T10:40:38;14.85;;;2.92;;
23228;SDS011;11783;50.350;6.576;2022-11-23T10:43:17;10.68;;;2.83;;
23228;SDS011;11783;50.350;6.576;2022-11-23T10:45:48;10.60;;;2.65;;
23228;SDS011;11783;50.350;6.576;2022-11-23T10:48:18;11.63;;;2.97;;
23228;SDS011;11783;50.350;6.576;2022-11-23T10:51:14;12.18;;;2.38;;
23228;SDS011;11783;50.350;6.576;2022-11-23T10:53:44;10.15;;;2.63;;
23228;SDS011;11783;50.350;6.576;2022-11-23T10:56:17;10.90;;;3.08;;
23228;SDS011;11783;50.350;6.576;2022-11-23T10:58:44;11.20;;;3.22;;
23228;SDS011;11783;50.350;6.576;2022-11-23T11:01:14;7.78;;;2.60;;
23228;SDS011;11783;50.350;6.576;2022-11-23T11:03:42;11.18;;;2.28;;
23228;SDS011;11783;50.350;6.576;2022-11-23T11:06:08;8.93;;;2.63;;
23228;SDS011;11783;50.350;6.576;2022-11-23T11:08:34;10.55;;;2.28;;
23228;SDS011;11783;50.350;6.576;2022-11-23T11:13:49;10.45;;;3.08;;
23228;SDS011;11783;50.350;6.576;2022-11-23T11:16:24;9.95;;;3.20;;
23228;SDS011;11783;50.350;6.576;2022-11-23T11:18:55;10.15;;;3.05;;
23228;SDS011;11783;50.350;6.576;2022-11-23T11:21:34;8.85;;;2.40;;
23228;SDS011;11783;50.350;6.576;2022-11-23T11:24:05;10.13;;;2.80;;
23228;SDS011;11783;50.350;6.576;2022-11-23T11:26:37;8.25;;;2.63;;
23228;SDS011;11783;50.350;6.576;2022-11-23T11:29:27;10.95;;;3.13;;
23228;SDS011;11783;50.350;6.576;2022-11-23T11:31:58;12.57;;;2.40;;
23228;SDS011;11783;50.350;6.576;2022-11-23T11:45:49;9.65;;;2.72;;
23228;SDS011;11783;50.350;6.576;2022-11-23T11:48:44;11.73;;;2.58;;
23228;SDS011;11783;50.350;6.576;2022-11-23T11:51:29;9.48;;;2.97;;
23228;SDS011;11783;50.350;6.576;2022-11-23T11:54:03;9.38;;;3.05;;
23228;SDS011;11783;50.350;6.576;2022-11-23T11:56:38;9.38;;;2.95;;
23228;SDS011;11783;50.350;6.576;2022-11-23T11:59:15;13.18;;;3.13;;
23228;SDS011;11783;50.350;6.576;2022-11-23T12:07:20;8.63;;;2.85;;
23228;SDS011;11783;50.350;6.576;2022-11-23T12:10:45;12.13;;;3.10;;
23228;SDS011;11783;50.350;6.576;2022-11-23T12:13:02;7.32;;;2.63;;
23228;SDS011;11783;50.350;6.576;2022-11-23T12:15:32;9.43;;;3.03;;
23228;SDS011;11783;50.350;6.576;2022-11-23T12:20:50;11.38;;;3.35;;
23228;SDS011;11783;50.350;6.576;2022-11-23T12:37:02;11.80;;;3.47;;
23228;SDS011;11783;50.350;6.576;2022-11-23T12:51:12;9.48;;;2.30;;
23228;SDS011;11783;50.350;6.576;2022-11-23T12:53:49;7.35;;;2.50;;
23228;SDS011;11783;50.350;6.576;2022-11-23T12:59:25;11.40;;;2.40;;
23228;SDS011;11783;50.350;6.576;2022-11-23T13:02:03;8.52;;;2.38;;
23228;SDS011;11783;50.350;6.576;2022-11-23T13:10:34;10.60;;;2.05;;
23228;SDS011;11783;50.350;6.576;2022-11-23T13:16:15;6.88;;;1.75;;
23228;SDS011;11783;50.350;6.576;2022-11-23T13:21:18;9.70;;;1.95;;
23228;SDS011;11783;50.350;6.576;2022-11-23T13:23:59;7.75;;;2.75;;
23228;SDS011;11783;50.350;6.576;2022-11-23T13:26:25;6.70;;;1.73;;
23228;SDS011;11783;50.350;6.576;2022-11-23T13:28:57;8.60;;;1.73;;
23228;SDS011;11783;50.350;6.576;2022-11-23T13:31:28;12.35;;;2.00;;
23228;SDS011;11783;50.350;6.576;2022-11-23T13:33:56;7.70;;;1.33;;
23228;SDS011;11783;50.350;6.576;2022-11-23T13:38:55;11.43;;;2.10;;
23228;SDS011;11783;50.350;6.576;2022-11-23T13:44:09;7.68;;;1.52;;
23228;SDS011;11783;50.350;6.576;2022-11-23T13:46:36;7.53;;;1.65;;
23228;SDS011;11783;50.350;6.576;2022-11-23T13:49:02;7.55;;;2.00;;
23228;SDS011;11783;50.350;6.576;2022-11-23T13:51:28;9.20;;;1.88;;
23228;SDS011;11783;50.350;6.576;2022-11-23T13:54:01;9.70;;;2.25;;
23228;SDS011;11783;50.350;6.576;2022-11-23T14:01:56;7.82;;;2.00;;
23228;SDS011;11783;50.350;6.576;2022-11-23T14:04:27;8.20;;;2.20;;
23228;SDS011;11783;50.350;6.576;2022-11-23T14:09:38;5.78;;;1.73;;
23228;SDS011;11783;50.350;6.576;2022-11-23T14:22:57;7.35;;;1.80;;
23228;SDS011;11783;50.350;6.576;2022-11-23T14:31:44;8.68;;;1.80;;
23228;SDS011;11783;50.350;6.576;2022-11-23T14:34:27;5.95;;;1.70;;
23228;SDS011;11783;50.350;6.576;2022-11-23T14:37:09;4.93;;;1.67;;
23228;SDS011;11783;50.350;6.576;2022-11-23T14:42:24;7.97;;;1.65;;
23228;SDS011;11783;50.350;6.576;2022-11-23T14:44:52;8.48;;;1.70;;
23228;SDS011;11783;50.350;6.576;2022-11-23T14:47:27;6.50;;;1.50;;
23228;SDS011;11783;50.350;6.576;2022-11-23T14:49:54;9.40;;;1.60;;
23228;SDS011;11783;50.350;6.576;2022-11-23T14:52:21;6.55;;;1.80;;
23228;SDS011;11783;50.350;6.576;2022-11-23T14:54:49;7.45;;;1.88;;
23228;SDS011;11783;50.350;6.576;2022-11-23T14:57:15;7.43;;;1.60;;
23228;SDS011;11783;50.350;6.576;2022-11-23T14:59:45;8.90;;;1.80;;
23228;SDS011;11783;50.350;6.576;2022-11-23T15:07:40;7.57;;;1.52;;
23228;SDS011;11783;50.350;6.576;2022-11-23T15:12:47;6.87;;;1.37;;
23228;SDS011;11783;50.350;6.576;2022-11-23T15:17:53;5.20;;;1.80;;
23228;SDS011;11783;50.350;6.576;2022-11-23T15:20:24;8.35;;;1.83;;
23228;SDS011;11783;50.350;6.576;2022-11-23T15:22:53;8.25;;;1.80;;
23228;SDS011;11783;50.350;6.576;2022-11-23T15:25:19;8.23;;;2.08;;
23228;SDS011;11783;50.350;6.576;2022-11-23T15:27:45;8.07;;;1.80;;
23228;SDS011;11783;50.350;6.576;2022-11-23T15:30:15;14.40;;;1.70;;
23228;SDS011;11783;50.350;6.576;2022-11-23T15:32:43;10.15;;;2.08;;
23228;SDS011;11783;50.350;6.576;2022-11-23T15:35:12;5.40;;;1.80;;
23228;SDS011;11783;50.350;6.576;2022-11-23T15:37:44;10.98;;;2.15;;
23228;SDS011;11783;50.350;6.576;2022-11-23T15:40:15;8.40;;;1.65;;
23228;SDS011;11783;50.350;6.576;2022-11-23T15:42:42;6.05;;;1.50;;
23228;SDS011;11783;50.350;6.576;2022-11-23T15:48:02;8.13;;;2.17;;
23228;SDS011;11783;50.350;6.576;2022-11-23T15:50:43;7.10;;;1.25;;
23228;SDS011;11783;50.350;6.576;2022-11-23T15:53:15;5.03;;;1.23;;
23228;SDS011;11783;50.350;6.576;2022-11-23T15:55:41;3.97;;;1.20;;
23228;SDS011;11783;50.350;6.576;2022-11-23T15:58:07;4.75;;;1.35;;
23228;SDS011;11783;50.350;6.576;2022-11-23T16:00:34;4.82;;;1.00;;
23228;SDS011;11783;50.350;6.576;2022-11-23T16:03:20;6.20;;;1.10;;
23228;SDS011;11783;50.350;6.576;2022-11-23T16:08:37;7.63;;;1.50;;
23228;SDS011;11783;50.350;6.576;2022-11-23T16:11:05;3.13;;;1.00;;
23228;SDS011;11783;50.350;6.576;2022-11-23T16:13:43;5.35;;;1.30;;
23228;SDS011;11783;50.350;6.576;2022-11-23T16:16:28;3.20;;;1.05;;
23228;SDS011;11783;50.350;6.576;2022-11-23T16:18:53;7.15;;;1.35;;
23228;SDS011;11783;50.350;6.576;2022-11-23T16:21:21;3.92;;;1.35;;
23228;SDS011;11783;50.350;6.576;2022-11-23T16:23:50;4.63;;;1.10;;
23228;SDS011;11783;50.350;6.576;2022-11-23T16:26:18;2.90;;;1.20;;
23228;SDS011;11783;50.350;6.576;2022-11-23T16:28:49;4.20;;;1.20;;
23228;SDS011;11783;50.350;6.576;2022-11-23T16:31:27;3.53;;;1.23;;
23228;SDS011;11783;50.350;6.576;2022-11-23T16:34:16;6.97;;;1.77;;
23228;SDS011;11783;50.350;6.576;2022-11-23T16:36:43;5.88;;;1.40;;
23228;SDS011;11783;50.350;6.576;2022-11-23T16:39:09;5.75;;;1.30;;
23228;SDS011;11783;50.350;6.576;2022-11-23T16:41:35;8.73;;;1.75;;
23228;SDS011;11783;50.350;6.576;2022-11-23T16:44:00;4.20;;;1.30;;
23228;SDS011;11783;50.350;6.576;2022-11-23T16:46:26;5.65;;;1.98;;
23228;SDS011;11783;50.350;6.576;2022-11-23T16:48:51;5.25;;;1.30;;
23228;SDS011;11783;50.350;6.576;2022-11-23T16:51:18;3.25;;;1.10;;
23228;SDS011;11783;50.350;6.576;2022-11-23T16:53:44;4.32;;;1.10;;
23228;SDS011;11783;50.350;6.576;2022-11-23T16:56:28;2.92;;;1.20;;
23228;SDS011;11783;50.350;6.576;2022-11-23T16:58:54;5.43;;;1.20;;